sensor_id;sensor_type;location;lat;lon;timestamp;temperature;humidity
16594;DHT22;8410;52.532;13.336;2022-07-21T00:00:21;27.30;60.10
16594;DHT22;8410;52.532;13.336;2022-07-21T00:02:50;27.20;60.30
16594;DHT22;8410;52.532;13.336;2022-07-21T00:05:20;27.30;60.40
16594;DHT22;8410;52.532;13.336;2022-07-21T00:07:49;27.20;60.30
16594;DHT22;8410;52.532;13.336;2022-07-21T00:10:19;27.10;60.70
16594;DHT22;8410;52.532;13.336;2022-07-21T00:12:48;27.10;60.80
16594;DHT22;8410;52.532;13.336;2022-07-21T00:15:18;27.10;60.80
16594;DHT22;8410;52.532;13.336;2022-07-21T00:17:49;27.10;60.60
16594;DHT22;8410;52.532;13.336;2022-07-21T00:20:18;27.10;60.80
16594;DHT22;8410;52.532;13.336;2022-07-21T00:22:47;27.10;60.90
16594;DHT22;8410;52.532;13.336;2022-07-21T00:25:15;27.00;61.10
16594;DHT22;8410;52.532;13.336;2022-07-21T00:27:43;26.90;61.00
16594;DHT22;8410;52.532;13.336;2022-07-21T00:30:12;27.00;61.30
16594;DHT22;8410;52.532;13.336;2022-07-21T00:32:42;26.90;61.40
16594;DHT22;8410;52.532;13.336;2022-07-21T00:35:12;26.90;61.40
16594;DHT22;8410;52.532;13.336;2022-07-21T00:37:42;26.80;61.70
16594;DHT22;8410;52.532;13.336;2022-07-21T00:40:11;26.80;61.90
16594;DHT22;8410;52.532;13.336;2022-07-21T00:42:40;26.80;61.90
16594;DHT22;8410;52.532;13.336;2022-07-21T00:45:11;26.80;62.00
16594;DHT22;8410;52.532;13.336;2022-07-21T00:47:40;26.80;62.40
16594;DHT22;8410;52.532;13.336;2022-07-21T00:50:10;26.70;62.20
16594;DHT22;8410;52.532;13.336;2022-07-21T00:52:42;26.70;62.20
16594;DHT22;8410;52.532;13.336;2022-07-21T00:55:11;26.70;62.20
16594;DHT22;8410;52.532;13.336;2022-07-21T00:57:41;26.70;62.50
16594;DHT22;8410;52.532;13.336;2022-07-21T01:00:12;26.70;62.80
16594;DHT22;8410;52.532;13.336;2022-07-21T01:02:42;26.70;62.20
16594;DHT22;8410;52.532;13.336;2022-07-21T01:05:11;26.70;62.10
16594;DHT22;8410;52.532;13.336;2022-07-21T01:07:45;26.70;61.90
16594;DHT22;8410;52.532;13.336;2022-07-21T01:10:15;26.80;61.80
16594;DHT22;8410;52.532;13.336;2022-07-21T01:12:45;26.80;61.70
16594;DHT22;8410;52.532;13.336;2022-07-21T01:15:14;26.80;61.40
16594;DHT22;8410;52.532;13.336;2022-07-21T01:17:44;26.80;61.50
16594;DHT22;8410;52.532;13.336;2022-07-21T01:20:15;26.80;61.50
16594;DHT22;8410;52.532;13.336;2022-07-21T01:22:47;26.80;61.60
16594;DHT22;8410;52.532;13.336;2022-07-21T01:25:17;26.80;61.60
16594;DHT22;8410;52.532;13.336;2022-07-21T01:27:46;26.70;61.60
16594;DHT22;8410;52.532;13.336;2022-07-21T01:30:15;26.70;61.80
16594;DHT22;8410;52.532;13.336;2022-07-21T01:32:45;26.60;61.90
16594;DHT22;8410;52.532;13.336;2022-07-21T01:35:14;26.60;62.00
16594;DHT22;8410;52.532;13.336;2022-07-21T01:37:44;26.60;62.10
16594;DHT22;8410;52.532;13.336;2022-07-21T01:40:16;26.60;62.20
16594;DHT22;8410;52.532;13.336;2022-07-21T01:43:03;26.60;62.50
16594;DHT22;8410;52.532;13.336;2022-07-21T01:45:39;26.50;62.60
16594;DHT22;8410;52.532;13.336;2022-07-21T01:48:08;26.60;62.60
16594;DHT22;8410;52.532;13.336;2022-07-21T01:50:36;26.60;62.60
16594;DHT22;8410;52.532;13.336;2022-07-21T01:53:06;26.40;62.70
16594;DHT22;8410;52.532;13.336;2022-07-21T01:55:34;26.40;62.70
16594;DHT22;8410;52.532;13.336;2022-07-21T01:58:02;26.40;62.80
16594;DHT22;8410;52.532;13.336;2022-07-21T02:00:30;26.30;62.90
16594;DHT22;8410;52.532;13.336;2022-07-21T02:02:58;26.30;63.30
16594;DHT22;8410;52.532;13.336;2022-07-21T02:05:26;26.20;63.40
16594;DHT22;8410;52.532;13.336;2022-07-21T02:07:53;26.20;63.20
16594;DHT22;8410;52.532;13.336;2022-07-21T02:10:23;26.20;63.30
16594;DHT22;8410;52.532;13.336;2022-07-21T02:12:51;26.20;63.40
16594;DHT22;8410;52.532;13.336;2022-07-21T02:15:19;26.20;63.50
16594;DHT22;8410;52.532;13.336;2022-07-21T02:17:47;26.10;63.60
16594;DHT22;8410;52.532;13.336;2022-07-21T02:20:14;26.20;63.40
16594;DHT22;8410;52.532;13.336;2022-07-21T02:22:42;26.20;63.60
16594;DHT22;8410;52.532;13.336;2022-07-21T02:25:12;26.10;63.60
16594;DHT22;8410;52.532;13.336;2022-07-21T02:27:42;26.10;64.00
16594;DHT22;8410;52.532;13.336;2022-07-21T02:30:12;26.10;63.90
16594;DHT22;8410;52.532;13.336;2022-07-21T02:32:42;26.00;64.40
16594;DHT22;8410;52.532;13.336;2022-07-21T02:35:33;26.00;70.20
16594;DHT22;8410;52.532;13.336;2022-07-21T02:38:06;26.00;65.20
16594;DHT22;8410;52.532;13.336;2022-07-21T02:40:52;25.90;67.70
16594;DHT22;8410;52.532;13.336;2022-07-21T02:43:30;25.90;69.70
16594;DHT22;8410;52.532;13.336;2022-07-21T02:46:07;25.90;64.90
16594;DHT22;8410;52.532;13.336;2022-07-21T02:48:48;25.90;64.90
16594;DHT22;8410;52.532;13.336;2022-07-21T02:51:20;25.90;66.90
16594;DHT22;8410;52.532;13.336;2022-07-21T02:53:52;25.90;65.80
16594;DHT22;8410;52.532;13.336;2022-07-21T02:56:26;25.90;64.60
16594;DHT22;8410;52.532;13.336;2022-07-21T02:59:01;26.00;65.50
16594;DHT22;8410;52.532;13.336;2022-07-21T03:01:42;25.90;67.00
16594;DHT22;8410;52.532;13.336;2022-07-21T03:04:21;25.90;64.40
16594;DHT22;8410;52.532;13.336;2022-07-21T03:07:06;25.90;65.00
16594;DHT22;8410;52.532;13.336;2022-07-21T03:09:40;25.90;64.50
16594;DHT22;8410;52.532;13.336;2022-07-21T03:12:08;25.90;64.20
16594;DHT22;8410;52.532;13.336;2022-07-21T03:14:50;25.90;65.30
16594;DHT22;8410;52.532;13.336;2022-07-21T03:17:22;25.90;64.50
16594;DHT22;8410;52.532;13.336;2022-07-21T03:19:55;25.90;64.60
16594;DHT22;8410;52.532;13.336;2022-07-21T03:22:36;25.90;65.30
16594;DHT22;8410;52.532;13.336;2022-07-21T03:25:19;25.80;65.00
16594;DHT22;8410;52.532;13.336;2022-07-21T03:27:53;25.90;65.90
16594;DHT22;8410;52.532;13.336;2022-07-21T03:30:23;25.90;64.80
16594;DHT22;8410;52.532;13.336;2022-07-21T03:33:06;25.90;65.70
16594;DHT22;8410;52.532;13.336;2022-07-21T03:35:38;25.90;65.60
16594;DHT22;8410;52.532;13.336;2022-07-21T03:38:14;25.90;65.10
16594;DHT22;8410;52.532;13.336;2022-07-21T03:40:43;25.90;64.40
16594;DHT22;8410;52.532;13.336;2022-07-21T03:43:14;25.90;64.50
16594;DHT22;8410;52.532;13.336;2022-07-21T03:45:50;25.80;64.70
16594;DHT22;8410;52.532;13.336;2022-07-21T03:48:35;25.80;65.00
16594;DHT22;8410;52.532;13.336;2022-07-21T03:51:21;25.80;65.00
16594;DHT22;8410;52.532;13.336;2022-07-21T03:53:55;25.90;64.90
16594;DHT22;8410;52.532;13.336;2022-07-21T03:56:26;26.10;65.00
16594;DHT22;8410;52.532;13.336;2022-07-21T03:59:02;26.20;64.40
16594;DHT22;8410;52.532;13.336;2022-07-21T04:02:05;26.30;64.60
16594;DHT22;8410;52.532;13.336;2022-07-21T04:04:41;25.90;65.10
16594;DHT22;8410;52.532;13.336;2022-07-21T04:07:20;25.70;65.40
16594;DHT22;8410;52.532;13.336;2022-07-21T04:09:51;25.60;66.40
16594;DHT22;8410;52.532;13.336;2022-07-21T04:12:25;25.60;66.60
16594;DHT22;8410;52.532;13.336;2022-07-21T04:14:58;25.70;66.30
16594;DHT22;8410;52.532;13.336;2022-07-21T04:17:27;25.80;66.00
16594;DHT22;8410;52.532;13.336;2022-07-21T04:19:55;25.90;66.10
16594;DHT22;8410;52.532;13.336;2022-07-21T04:22:23;25.90;65.10
16594;DHT22;8410;52.532;13.336;2022-07-21T04:24:51;25.90;65.90
16594;DHT22;8410;52.532;13.336;2022-07-21T04:27:19;26.20;65.40
16594;DHT22;8410;52.532;13.336;2022-07-21T04:29:47;26.60;64.70
16594;DHT22;8410;52.532;13.336;2022-07-21T04:32:15;26.80;64.10
16594;DHT22;8410;52.532;13.336;2022-07-21T04:34:44;27.00;63.90
16594;DHT22;8410;52.532;13.336;2022-07-21T04:37:12;27.10;63.60
16594;DHT22;8410;52.532;13.336;2022-07-21T04:39:40;27.10;63.90
16594;DHT22;8410;52.532;13.336;2022-07-21T04:42:11;27.10;63.50
16594;DHT22;8410;52.532;13.336;2022-07-21T04:44:39;26.80;64.70
16594;DHT22;8410;52.532;13.336;2022-07-21T04:47:07;26.70;64.50
16594;DHT22;8410;52.532;13.336;2022-07-21T04:49:35;26.50;64.80
16594;DHT22;8410;52.532;13.336;2022-07-21T04:52:05;26.60;64.50
16594;DHT22;8410;52.532;13.336;2022-07-21T04:54:33;26.60;64.30
16594;DHT22;8410;52.532;13.336;2022-07-21T04:57:01;26.40;64.80
16594;DHT22;8410;52.532;13.336;2022-07-21T04:59:30;26.20;66.00
16594;DHT22;8410;52.532;13.336;2022-07-21T05:01:59;25.80;67.20
16594;DHT22;8410;52.532;13.336;2022-07-21T05:04:28;25.50;68.10
16594;DHT22;8410;52.532;13.336;2022-07-21T05:06:56;25.50;68.80
16594;DHT22;8410;52.532;13.336;2022-07-21T05:09:25;25.60;69.00
16594;DHT22;8410;52.532;13.336;2022-07-21T05:11:53;25.40;70.10
16594;DHT22;8410;52.532;13.336;2022-07-21T05:14:21;25.50;70.30
16594;DHT22;8410;52.532;13.336;2022-07-21T05:16:49;25.40;70.60
16594;DHT22;8410;52.532;13.336;2022-07-21T05:19:17;25.40;70.90
16594;DHT22;8410;52.532;13.336;2022-07-21T05:21:45;25.60;71.10
16594;DHT22;8410;52.532;13.336;2022-07-21T05:24:13;25.60;71.40
16594;DHT22;8410;52.532;13.336;2022-07-21T05:26:43;25.60;71.30
16594;DHT22;8410;52.532;13.336;2022-07-21T05:29:11;25.90;70.70
16594;DHT22;8410;52.532;13.336;2022-07-21T05:31:39;25.90;71.10
16594;DHT22;8410;52.532;13.336;2022-07-21T05:34:07;26.20;70.80
16594;DHT22;8410;52.532;13.336;2022-07-21T05:36:34;26.10;70.70
16594;DHT22;8410;52.532;13.336;2022-07-21T05:39:04;25.90;71.50
16594;DHT22;8410;52.532;13.336;2022-07-21T05:41:32;25.90;71.70
16594;DHT22;8410;52.532;13.336;2022-07-21T05:44:02;26.30;71.00
16594;DHT22;8410;52.532;13.336;2022-07-21T05:46:29;26.40;71.40
16594;DHT22;8410;52.532;13.336;2022-07-21T05:48:57;26.20;71.20
16594;DHT22;8410;52.532;13.336;2022-07-21T05:51:26;26.10;71.60
16594;DHT22;8410;52.532;13.336;2022-07-21T05:53:54;25.90;72.10
16594;DHT22;8410;52.532;13.336;2022-07-21T05:56:22;26.10;71.60
16594;DHT22;8410;52.532;13.336;2022-07-21T05:58:49;25.90;72.30
16594;DHT22;8410;52.532;13.336;2022-07-21T06:01:20;25.90;72.40
16594;DHT22;8410;52.532;13.336;2022-07-21T06:03:49;25.90;72.70
16594;DHT22;8410;52.532;13.336;2022-07-21T06:06:19;25.90;72.40
16594;DHT22;8410;52.532;13.336;2022-07-21T06:08:49;25.80;72.70
16594;DHT22;8410;52.532;13.336;2022-07-21T06:11:20;25.90;72.80
16594;DHT22;8410;52.532;13.336;2022-07-21T06:13:48;25.90;72.50
16594;DHT22;8410;52.532;13.336;2022-07-21T06:16:17;25.90;72.30
16594;DHT22;8410;52.532;13.336;2022-07-21T06:18:46;25.90;72.00
16594;DHT22;8410;52.532;13.336;2022-07-21T06:21:14;25.80;72.60
16594;DHT22;8410;52.532;13.336;2022-07-21T06:26:17;25.90;72.30
16594;DHT22;8410;52.532;13.336;2022-07-21T06:28:45;26.00;72.30
16594;DHT22;8410;52.532;13.336;2022-07-21T06:31:13;26.10;72.30
16594;DHT22;8410;52.532;13.336;2022-07-21T06:33:41;26.00;72.20
16594;DHT22;8410;52.532;13.336;2022-07-21T06:36:10;25.90;72.60
16594;DHT22;8410;52.532;13.336;2022-07-21T06:38:39;25.80;73.70
16594;DHT22;8410;52.532;13.336;2022-07-21T06:41:07;25.70;73.60
16594;DHT22;8410;52.532;13.336;2022-07-21T06:43:34;25.60;73.50
16594;DHT22;8410;52.532;13.336;2022-07-21T06:46:03;25.60;73.70
16594;DHT22;8410;52.532;13.336;2022-07-21T06:48:31;25.70;73.70
16594;DHT22;8410;52.532;13.336;2022-07-21T06:50:59;25.80;73.30
16594;DHT22;8410;52.532;13.336;2022-07-21T06:53:29;25.90;72.70
16594;DHT22;8410;52.532;13.336;2022-07-21T06:55:57;26.00;72.00
16594;DHT22;8410;52.532;13.336;2022-07-21T06:58:30;26.00;72.10
16594;DHT22;8410;52.532;13.336;2022-07-21T07:01:05;26.10;72.50
16594;DHT22;8410;52.532;13.336;2022-07-21T07:03:34;26.20;72.20
16594;DHT22;8410;52.532;13.336;2022-07-21T07:06:04;26.10;72.40
16594;DHT22;8410;52.532;13.336;2022-07-21T07:08:33;26.10;72.80
16594;DHT22;8410;52.532;13.336;2022-07-21T07:11:10;26.10;72.10
16594;DHT22;8410;52.532;13.336;2022-07-21T07:13:38;26.20;72.50
16594;DHT22;8410;52.532;13.336;2022-07-21T07:16:23;26.10;72.60
16594;DHT22;8410;52.532;13.336;2022-07-21T07:18:51;26.30;72.40
16594;DHT22;8410;52.532;13.336;2022-07-21T07:21:20;26.40;72.00
16594;DHT22;8410;52.532;13.336;2022-07-21T07:23:50;26.40;72.00
16594;DHT22;8410;52.532;13.336;2022-07-21T07:26:18;26.40;72.10
16594;DHT22;8410;52.532;13.336;2022-07-21T07:28:46;26.30;71.80
16594;DHT22;8410;52.532;13.336;2022-07-21T07:31:14;26.40;72.20
16594;DHT22;8410;52.532;13.336;2022-07-21T07:33:42;26.50;71.50
16594;DHT22;8410;52.532;13.336;2022-07-21T07:36:10;26.50;71.90
16594;DHT22;8410;52.532;13.336;2022-07-21T07:38:40;26.50;72.10
16594;DHT22;8410;52.532;13.336;2022-07-21T07:41:09;26.60;71.60
16594;DHT22;8410;52.532;13.336;2022-07-21T07:43:37;26.60;71.30
16594;DHT22;8410;52.532;13.336;2022-07-21T07:46:05;26.50;71.30
16594;DHT22;8410;52.532;13.336;2022-07-21T07:48:34;26.50;72.00
16594;DHT22;8410;52.532;13.336;2022-07-21T07:51:03;26.70;71.40
16594;DHT22;8410;52.532;13.336;2022-07-21T07:53:31;26.80;71.50
16594;DHT22;8410;52.532;13.336;2022-07-21T07:56:00;26.80;71.40
16594;DHT22;8410;52.532;13.336;2022-07-21T07:58:30;27.00;71.30
16594;DHT22;8410;52.532;13.336;2022-07-21T08:00:59;27.00;70.60
16594;DHT22;8410;52.532;13.336;2022-07-21T08:03:33;26.90;70.80
16594;DHT22;8410;52.532;13.336;2022-07-21T08:06:02;26.80;71.20
16594;DHT22;8410;52.532;13.336;2022-07-21T08:08:33;26.80;71.60
16594;DHT22;8410;52.532;13.336;2022-07-21T08:11:01;27.00;71.30
16594;DHT22;8410;52.532;13.336;2022-07-21T08:13:31;27.00;71.60
16594;DHT22;8410;52.532;13.336;2022-07-21T08:15:59;27.00;71.60
16594;DHT22;8410;52.532;13.336;2022-07-21T08:18:27;27.00;71.40
16594;DHT22;8410;52.532;13.336;2022-07-21T08:20:55;27.00;71.70
16594;DHT22;8410;52.532;13.336;2022-07-21T08:23:23;27.00;71.30
16594;DHT22;8410;52.532;13.336;2022-07-21T08:25:51;27.00;71.20
16594;DHT22;8410;52.532;13.336;2022-07-21T08:28:19;27.00;71.50
16594;DHT22;8410;52.532;13.336;2022-07-21T08:30:49;27.00;71.40
16594;DHT22;8410;52.532;13.336;2022-07-21T08:33:17;27.10;71.30
16594;DHT22;8410;52.532;13.336;2022-07-21T08:35:45;27.30;70.80
16594;DHT22;8410;52.532;13.336;2022-07-21T08:38:13;27.20;70.20
16594;DHT22;8410;52.532;13.336;2022-07-21T08:40:43;27.20;71.30
16594;DHT22;8410;52.532;13.336;2022-07-21T08:43:13;27.40;70.30
16594;DHT22;8410;52.532;13.336;2022-07-21T08:45:42;27.40;70.80
16594;DHT22;8410;52.532;13.336;2022-07-21T08:48:12;27.50;71.00
16594;DHT22;8410;52.532;13.336;2022-07-21T08:50:45;27.50;70.40
16594;DHT22;8410;52.532;13.336;2022-07-21T08:53:14;27.70;70.80
16594;DHT22;8410;52.532;13.336;2022-07-21T08:55:42;27.80;70.80
16594;DHT22;8410;52.532;13.336;2022-07-21T08:58:12;27.70;70.30
16594;DHT22;8410;52.532;13.336;2022-07-21T09:00:42;27.90;69.70
16594;DHT22;8410;52.532;13.336;2022-07-21T09:03:16;28.00;68.90
16594;DHT22;8410;52.532;13.336;2022-07-21T09:06:00;28.10;68.30
16594;DHT22;8410;52.532;13.336;2022-07-21T09:08:36;28.10;68.30
16594;DHT22;8410;52.532;13.336;2022-07-21T09:11:10;28.30;68.30
16594;DHT22;8410;52.532;13.336;2022-07-21T09:13:42;28.50;67.80
16594;DHT22;8410;52.532;13.336;2022-07-21T09:16:11;28.40;67.40
16594;DHT22;8410;52.532;13.336;2022-07-21T09:18:49;28.20;67.80
16594;DHT22;8410;52.532;13.336;2022-07-21T09:21:19;28.20;68.20
16594;DHT22;8410;52.532;13.336;2022-07-21T09:23:47;28.30;68.50
16594;DHT22;8410;52.532;13.336;2022-07-21T09:26:15;28.40;67.90
16594;DHT22;8410;52.532;13.336;2022-07-21T09:28:43;28.50;68.10
16594;DHT22;8410;52.532;13.336;2022-07-21T09:31:12;28.60;67.60
16594;DHT22;8410;52.532;13.336;2022-07-21T09:33:41;28.70;67.80
16594;DHT22;8410;52.532;13.336;2022-07-21T09:36:15;28.60;67.20
16594;DHT22;8410;52.532;13.336;2022-07-21T09:38:45;28.60;67.20
16594;DHT22;8410;52.532;13.336;2022-07-21T09:41:20;28.60;67.30
16594;DHT22;8410;52.532;13.336;2022-07-21T09:43:51;28.70;66.70
16594;DHT22;8410;52.532;13.336;2022-07-21T09:46:22;28.90;66.50
16594;DHT22;8410;52.532;13.336;2022-07-21T09:48:53;28.90;66.30
16594;DHT22;8410;52.532;13.336;2022-07-21T09:51:45;29.10;65.80
16594;DHT22;8410;52.532;13.336;2022-07-21T09:54:14;29.30;65.80
16594;DHT22;8410;52.532;13.336;2022-07-21T09:56:44;29.40;65.60
16594;DHT22;8410;52.532;13.336;2022-07-21T09:59:14;29.40;65.30
16594;DHT22;8410;52.532;13.336;2022-07-21T10:01:42;29.30;65.20
16594;DHT22;8410;52.532;13.336;2022-07-21T10:04:12;29.20;65.40
16594;DHT22;8410;52.532;13.336;2022-07-21T10:06:41;29.10;65.40
16594;DHT22;8410;52.532;13.336;2022-07-21T10:09:11;29.00;65.50
16594;DHT22;8410;52.532;13.336;2022-07-21T10:11:43;29.20;65.60
16594;DHT22;8410;52.532;13.336;2022-07-21T10:14:12;29.30;65.80
16594;DHT22;8410;52.532;13.336;2022-07-21T10:16:40;29.20;65.20
16594;DHT22;8410;52.532;13.336;2022-07-21T10:19:21;29.20;64.80
16594;DHT22;8410;52.532;13.336;2022-07-21T10:21:58;29.20;65.00
16594;DHT22;8410;52.532;13.336;2022-07-21T10:24:33;28.90;64.50
16594;DHT22;8410;52.532;13.336;2022-07-21T10:27:04;28.60;65.00
16594;DHT22;8410;52.532;13.336;2022-07-21T10:29:58;28.60;65.20
16594;DHT22;8410;52.532;13.336;2022-07-21T10:32:31;28.60;65.20
16594;DHT22;8410;52.532;13.336;2022-07-21T10:35:03;28.60;65.30
16594;DHT22;8410;52.532;13.336;2022-07-21T10:37:51;28.60;65.30
16594;DHT22;8410;52.532;13.336;2022-07-21T10:40:36;28.70;65.40
16594;DHT22;8410;52.532;13.336;2022-07-21T10:43:38;28.70;65.40
16594;DHT22;8410;52.532;13.336;2022-07-21T10:46:33;28.50;65.60
16594;DHT22;8410;52.532;13.336;2022-07-21T10:49:06;28.60;65.90
16594;DHT22;8410;52.532;13.336;2022-07-21T10:51:37;28.40;65.70
16594;DHT22;8410;52.532;13.336;2022-07-21T10:54:21;28.30;66.30
16594;DHT22;8410;52.532;13.336;2022-07-21T10:57:25;28.20;66.40
16594;DHT22;8410;52.532;13.336;2022-07-21T11:00:20;28.20;66.70
16594;DHT22;8410;52.532;13.336;2022-07-21T11:02:53;28.20;66.20
16594;DHT22;8410;52.532;13.336;2022-07-21T11:05:24;28.30;66.40
16594;DHT22;8410;52.532;13.336;2022-07-21T11:08:16;28.40;65.60
16594;DHT22;8410;52.532;13.336;2022-07-21T11:10:49;28.40;65.70
16594;DHT22;8410;52.532;13.336;2022-07-21T11:13:21;28.40;65.70
16594;DHT22;8410;52.532;13.336;2022-07-21T11:15:58;28.40;66.20
16594;DHT22;8410;52.532;13.336;2022-07-21T11:18:29;28.50;66.30
16594;DHT22;8410;52.532;13.336;2022-07-21T11:21:09;28.50;66.30
16594;DHT22;8410;52.532;13.336;2022-07-21T11:23:42;28.50;66.00
16594;DHT22;8410;52.532;13.336;2022-07-21T11:26:13;28.40;65.80
16594;DHT22;8410;52.532;13.336;2022-07-21T11:28:44;28.40;65.80
16594;DHT22;8410;52.532;13.336;2022-07-21T11:31:17;28.60;65.50
16594;DHT22;8410;52.532;13.336;2022-07-21T11:33:48;28.70;65.80
16594;DHT22;8410;52.532;13.336;2022-07-21T11:36:25;28.80;65.60
16594;DHT22;8410;52.532;13.336;2022-07-21T11:38:59;28.80;66.50
16594;DHT22;8410;52.532;13.336;2022-07-21T11:41:29;28.80;65.90
16594;DHT22;8410;52.532;13.336;2022-07-21T11:43:59;28.50;65.40
16594;DHT22;8410;52.532;13.336;2022-07-21T11:46:27;28.30;66.00
16594;DHT22;8410;52.532;13.336;2022-07-21T11:49:03;28.20;66.10
16594;DHT22;8410;52.532;13.336;2022-07-21T11:51:32;28.30;66.40
16594;DHT22;8410;52.532;13.336;2022-07-21T11:54:00;28.30;66.80
16594;DHT22;8410;52.532;13.336;2022-07-21T11:56:28;28.30;66.90
16594;DHT22;8410;52.532;13.336;2022-07-21T11:59:11;28.20;66.50
16594;DHT22;8410;52.532;13.336;2022-07-21T12:01:54;28.00;66.90
16594;DHT22;8410;52.532;13.336;2022-07-21T12:04:38;27.90;67.50
16594;DHT22;8410;52.532;13.336;2022-07-21T12:07:19;27.70;67.70
16594;DHT22;8410;52.532;13.336;2022-07-21T12:09:51;27.80;68.00
16594;DHT22;8410;52.532;13.336;2022-07-21T12:12:29;27.80;67.90
16594;DHT22;8410;52.532;13.336;2022-07-21T12:15:12;27.70;67.60
16594;DHT22;8410;52.532;13.336;2022-07-21T12:17:44;27.70;67.90
16594;DHT22;8410;52.532;13.336;2022-07-21T12:20:23;27.70;67.50
16594;DHT22;8410;52.532;13.336;2022-07-21T12:22:52;27.50;67.90
16594;DHT22;8410;52.532;13.336;2022-07-21T12:25:30;27.40;69.30
16594;DHT22;8410;52.532;13.336;2022-07-21T12:28:01;27.30;71.00
16594;DHT22;8410;52.532;13.336;2022-07-21T12:30:33;27.10;72.60
16594;DHT22;8410;52.532;13.336;2022-07-21T12:33:08;27.00;72.40
16594;DHT22;8410;52.532;13.336;2022-07-21T12:35:39;27.10;73.00
16594;DHT22;8410;52.532;13.336;2022-07-21T12:38:10;27.10;73.20
16594;DHT22;8410;52.532;13.336;2022-07-21T12:40:40;27.10;73.30
16594;DHT22;8410;52.532;13.336;2022-07-21T12:43:30;27.00;73.50
16594;DHT22;8410;52.532;13.336;2022-07-21T12:46:01;27.00;74.50
16594;DHT22;8410;52.532;13.336;2022-07-21T12:48:36;26.90;75.90
16594;DHT22;8410;52.532;13.336;2022-07-21T12:51:09;26.90;77.70
16594;DHT22;8410;52.532;13.336;2022-07-21T12:53:42;26.80;75.60
16594;DHT22;8410;52.532;13.336;2022-07-21T12:56:14;26.90;77.60
16594;DHT22;8410;52.532;13.336;2022-07-21T12:58:44;26.90;76.40
16594;DHT22;8410;52.532;13.336;2022-07-21T13:01:15;26.90;76.10
16594;DHT22;8410;52.532;13.336;2022-07-21T13:03:45;26.80;76.10
16594;DHT22;8410;52.532;13.336;2022-07-21T13:06:14;26.70;76.60
16594;DHT22;8410;52.532;13.336;2022-07-21T13:08:44;26.60;78.20
16594;DHT22;8410;52.532;13.336;2022-07-21T13:11:16;26.60;78.80
16594;DHT22;8410;52.532;13.336;2022-07-21T13:13:46;26.40;80.80
16594;DHT22;8410;52.532;13.336;2022-07-21T13:16:18;25.90;84.30
16594;DHT22;8410;52.532;13.336;2022-07-21T13:18:50;25.60;86.10
16594;DHT22;8410;52.532;13.336;2022-07-21T13:21:19;25.60;85.60
16594;DHT22;8410;52.532;13.336;2022-07-21T13:23:47;25.50;90.00
16594;DHT22;8410;52.532;13.336;2022-07-21T13:26:15;25.20;91.00
16594;DHT22;8410;52.532;13.336;2022-07-21T13:28:43;25.10;93.30
16594;DHT22;8410;52.532;13.336;2022-07-21T13:31:11;24.70;95.40
16594;DHT22;8410;52.532;13.336;2022-07-21T13:33:40;24.70;96.40
16594;DHT22;8410;52.532;13.336;2022-07-21T13:36:09;24.80;97.50
16594;DHT22;8410;52.532;13.336;2022-07-21T13:38:40;24.70;98.00
16594;DHT22;8410;52.532;13.336;2022-07-21T13:41:08;24.80;97.80
16594;DHT22;8410;52.532;13.336;2022-07-21T13:43:56;24.70;98.30
16594;DHT22;8410;52.532;13.336;2022-07-21T13:46:25;24.50;98.60
16594;DHT22;8410;52.532;13.336;2022-07-21T13:48:55;24.50;98.60
16594;DHT22;8410;52.532;13.336;2022-07-21T13:51:23;24.70;99.10
16594;DHT22;8410;52.532;13.336;2022-07-21T13:53:52;24.90;98.50
16594;DHT22;8410;52.532;13.336;2022-07-21T13:56:21;24.70;99.00
16594;DHT22;8410;52.532;13.336;2022-07-21T13:58:50;24.60;99.70
16594;DHT22;8410;52.532;13.336;2022-07-21T14:01:18;24.90;99.20
16594;DHT22;8410;52.532;13.336;2022-07-21T14:03:47;24.90;98.40
16594;DHT22;8410;52.532;13.336;2022-07-21T14:06:19;25.30;97.70
16594;DHT22;8410;52.532;13.336;2022-07-21T14:08:47;25.70;97.00
16594;DHT22;8410;52.532;13.336;2022-07-21T14:11:16;26.00;96.20
16594;DHT22;8410;52.532;13.336;2022-07-21T14:13:44;26.00;95.70
16594;DHT22;8410;52.532;13.336;2022-07-21T14:16:12;25.90;95.20
16594;DHT22;8410;52.532;13.336;2022-07-21T14:18:41;25.90;95.20
16594;DHT22;8410;52.532;13.336;2022-07-21T14:21:09;26.10;95.50
16594;DHT22;8410;52.532;13.336;2022-07-21T14:23:39;25.90;94.80
16594;DHT22;8410;52.532;13.336;2022-07-21T14:26:07;25.70;95.20
16594;DHT22;8410;52.532;13.336;2022-07-21T14:28:35;25.80;93.60
16594;DHT22;8410;52.532;13.336;2022-07-21T14:31:04;26.00;93.90
16594;DHT22;8410;52.532;13.336;2022-07-21T14:33:32;26.00;93.50
16594;DHT22;8410;52.532;13.336;2022-07-21T14:36:00;26.10;93.30
16594;DHT22;8410;52.532;13.336;2022-07-21T14:38:28;26.20;92.50
16594;DHT22;8410;52.532;13.336;2022-07-21T14:40:57;26.20;92.30
16594;DHT22;8410;52.532;13.336;2022-07-21T14:43:25;26.30;92.40
16594;DHT22;8410;52.532;13.336;2022-07-21T14:45:53;26.40;92.00
16594;DHT22;8410;52.532;13.336;2022-07-21T14:48:21;26.40;91.80
16594;DHT22;8410;52.532;13.336;2022-07-21T14:50:50;26.30;91.60
16594;DHT22;8410;52.532;13.336;2022-07-21T14:53:18;26.20;92.00
16594;DHT22;8410;52.532;13.336;2022-07-21T14:55:46;26.40;91.10
16594;DHT22;8410;52.532;13.336;2022-07-21T14:58:16;26.60;91.20
16594;DHT22;8410;52.532;13.336;2022-07-21T15:00:44;26.70;90.80
16594;DHT22;8410;52.532;13.336;2022-07-21T15:03:12;26.60;90.20
16594;DHT22;8410;52.532;13.336;2022-07-21T15:05:42;26.50;90.70
16594;DHT22;8410;52.532;13.336;2022-07-21T15:08:10;26.30;90.40
16594;DHT22;8410;52.532;13.336;2022-07-21T15:10:41;25.90;90.80
16594;DHT22;8410;52.532;13.336;2022-07-21T15:13:10;25.90;91.30
16594;DHT22;8410;52.532;13.336;2022-07-21T15:15:39;25.90;91.30
16594;DHT22;8410;52.532;13.336;2022-07-21T15:18:08;25.90;91.20
16594;DHT22;8410;52.532;13.336;2022-07-21T15:20:36;25.90;91.40
16594;DHT22;8410;52.532;13.336;2022-07-21T15:23:04;25.80;91.20
16594;DHT22;8410;52.532;13.336;2022-07-21T15:25:32;25.80;91.40
16594;DHT22;8410;52.532;13.336;2022-07-21T15:28:00;25.80;91.50
16594;DHT22;8410;52.532;13.336;2022-07-21T15:30:28;25.80;91.60
16594;DHT22;8410;52.532;13.336;2022-07-21T15:32:58;25.80;91.40
16594;DHT22;8410;52.532;13.336;2022-07-21T15:35:26;25.90;91.30
16594;DHT22;8410;52.532;13.336;2022-07-21T15:37:55;26.00;91.30
16594;DHT22;8410;52.532;13.336;2022-07-21T15:40:23;26.10;91.30
16594;DHT22;8410;52.532;13.336;2022-07-21T15:42:52;26.20;90.70
16594;DHT22;8410;52.532;13.336;2022-07-21T15:45:20;26.30;90.90
16594;DHT22;8410;52.532;13.336;2022-07-21T15:47:48;26.30;90.90
16594;DHT22;8410;52.532;13.336;2022-07-21T15:50:17;26.20;90.90
16594;DHT22;8410;52.532;13.336;2022-07-21T15:52:45;26.10;91.20
16594;DHT22;8410;52.532;13.336;2022-07-21T15:55:13;26.20;91.00
16594;DHT22;8410;52.532;13.336;2022-07-21T15:57:42;26.10;91.10